Portada
METAR-TAF:

METAR-TAF

Aeroports :

Naval Air Station Whiting Field South

Milton, Florida, Estats Units d'Amèrica

latitud: 30-41-50N, longitud: 087-01-12W, altitud: 54 m

Observació

L'informe es va fer fa 1 hora i 44 minuts, a les 22:56 UTC
Vent 5 kt amb direcció variable
Temperatura 32°C
Humitat 49%
Pressió 1015 hPa
Visibilitat: 16.1 km
Cel clar

METAR: KNDZ 222256Z AUTO VRB05KT 10SM CLR 32/20 A2997 RMK AO2 SLP134 T03170200 PNO $

Hora: 19:40 (00:40 UTC)


TAF: manca

Observacions i pronòstics meteorològics de més de 4000 aeroports (METAR i TAF).

Les estacions disponibles són els punts grocs i vermells al mapa.

Posi el ratolí al punt desitjat per veure el nom de l'estació.

Feu clic per veure les observacions i els pronòstics meteorològics.

Per canviar el mapa: feu clic els botons verds amb una creu de color negre per apropar; al botó verd amb un guió per allunyar la imatge; o en les fletxes verdes per a mapes adjacents.


METAR-TAF: